createdAt,value
2023-01-21T00:01:18.619Z,12.38
2023-01-21T00:03:47.139Z,9.77
2023-01-21T00:06:15.630Z,10.20
2023-01-21T00:08:43.626Z,10.32
2023-01-21T00:11:15.019Z,11.90
2023-01-21T00:13:45.550Z,10.40
2023-01-21T00:16:15.735Z,10.18
2023-01-21T00:18:43.411Z,11.38
2023-01-21T00:21:12.475Z,9.52
2023-01-21T00:23:40.457Z,10.73
2023-01-21T00:26:10.750Z,10.20
2023-01-21T00:28:39.350Z,10.98
2023-01-21T00:31:09.280Z,8.90
2023-01-21T00:33:37.625Z,7.93
2023-01-21T00:36:08.548Z,6.53
2023-01-21T00:38:36.880Z,8.35
2023-01-21T00:41:07.465Z,9.55
2023-01-21T00:43:35.360Z,6.32
2023-01-21T00:46:03.963Z,8.68
2023-01-21T00:48:32.765Z,7.80
2023-01-21T00:51:01.275Z,7.85
2023-01-21T00:53:31.866Z,8.38
2023-01-21T00:56:06.373Z,8.70
2023-01-21T00:58:34.573Z,7.65
2023-01-21T01:01:10.018Z,7.28
2023-01-21T01:03:39.119Z,7.40
2023-01-21T01:06:08.785Z,7.03
2023-01-21T01:08:36.614Z,7.18
2023-01-21T01:11:05.543Z,5.88
2023-01-21T01:13:34.713Z,7.28
2023-01-21T01:16:04.070Z,6.10
2023-01-21T01:18:34.877Z,5.63
2023-01-21T01:21:04.527Z,6.80
2023-01-21T01:23:33.125Z,5.97
2023-01-21T01:26:09.874Z,5.00
2023-01-21T01:28:38.355Z,6.22
2023-01-21T01:31:09.882Z,4.90
2023-01-21T01:33:38.438Z,5.90
2023-01-21T01:36:14.075Z,5.07
2023-01-21T01:38:42.452Z,6.45
2023-01-21T01:41:18.461Z,6.03
2023-01-21T01:44:01.962Z,6.10
2023-01-21T01:46:32.797Z,5.43
2023-01-21T01:49:04.089Z,4.63
2023-01-21T01:51:49.392Z,5.10
2023-01-21T01:54:27.922Z,4.78
2023-01-21T01:56:59.149Z,5.55
2023-01-21T01:59:27.484Z,5.50
2023-01-21T02:01:57.502Z,6.15
2023-01-21T02:04:29.438Z,5.95
2023-01-21T02:06:58.193Z,5.72
2023-01-21T02:09:30.116Z,4.47
2023-01-21T02:12:00.307Z,4.95
2023-01-21T02:14:29.063Z,5.47
2023-01-21T02:17:34.147Z,6.32
2023-01-21T02:20:25.391Z,5.50
2023-01-21T02:23:35.464Z,5.50
2023-01-21T02:26:32.713Z,5.88
2023-01-21T02:29:00.491Z,6.35
2023-01-21T02:31:52.756Z,5.60
2023-01-21T02:34:36.497Z,7.47
2023-01-21T02:37:11.902Z,4.93
2023-01-21T02:39:59.410Z,6.78
2023-01-21T02:42:47.661Z,4.60
2023-01-21T02:45:22.888Z,6.47
2023-01-21T02:48:16.335Z,4.85
2023-01-21T02:50:53.028Z,6.70
2023-01-21T02:53:36.244Z,6.43
2023-01-21T02:56:13.677Z,6.05
2023-01-21T02:58:47.570Z,5.45
2023-01-21T03:01:40.406Z,5.75
2023-01-21T03:04:11.071Z,5.27
2023-01-21T03:06:43.872Z,5.32
2023-01-21T03:09:25.115Z,5.95
2023-01-21T03:12:18.299Z,7.70
2023-01-21T03:15:23.459Z,6.25
2023-01-21T03:18:05.341Z,6.63
2023-01-21T03:20:41.465Z,6.50
2023-01-21T03:23:17.064Z,4.25
2023-01-21T03:25:46.487Z,7.70
2023-01-21T03:28:18.997Z,5.75
2023-01-21T03:30:56.003Z,7.22
2023-01-21T03:33:24.819Z,7.07
2023-01-21T03:35:55.530Z,7.43
2023-01-21T03:38:31.582Z,7.10
2023-01-21T03:41:06.979Z,7.45
2023-01-21T03:43:35.959Z,6.65
2023-01-21T03:46:09.416Z,8.02
2023-01-21T03:48:45.014Z,7.20
2023-01-21T03:51:17.618Z,6.60
2023-01-21T03:53:46.209Z,6.05
2023-01-21T03:56:14.083Z,7.72
2023-01-21T03:58:42.448Z,6.15
2023-01-21T04:01:10.245Z,6.07
2023-01-21T04:03:38.736Z,6.68
2023-01-21T04:06:06.629Z,5.07
2023-01-21T04:08:34.890Z,6.05
2023-01-21T04:11:02.852Z,5.68
2023-01-21T04:13:31.165Z,4.75
2023-01-21T04:15:58.887Z,3.80
2023-01-21T04:18:27.019Z,4.43
2023-01-21T04:20:54.763Z,4.72
2023-01-21T04:23:22.780Z,3.40
2023-01-21T04:25:51.659Z,4.65
2023-01-21T04:28:20.410Z,4.55
2023-01-21T04:30:48.864Z,3.85
2023-01-21T04:33:17.335Z,3.08
2023-01-21T04:35:45.540Z,3.97
2023-01-21T04:38:14.533Z,3.70
2023-01-21T04:40:42.657Z,3.47
2023-01-21T04:43:10.801Z,3.15
2023-01-21T04:45:45.222Z,2.90
2023-01-21T04:56:54.486Z,2.40
2023-01-21T04:59:28.672Z,2.97
2023-01-21T05:02:19.434Z,1.63
2023-01-21T05:13:19.862Z,2.20
2023-01-21T05:15:47.224Z,1.40
2023-01-21T05:18:15.362Z,2.13
2023-01-21T05:20:43.193Z,2.00
2023-01-21T05:27:06.303Z,1.50
2023-01-21T05:29:34.093Z,1.65
2023-01-21T05:32:02.823Z,1.05
2023-01-21T05:34:30.673Z,1.48
2023-01-21T05:36:59.101Z,1.92
2023-01-21T05:39:26.937Z,1.90
2023-01-21T05:41:55.296Z,1.48
2023-01-21T05:44:23.094Z,1.73
2023-01-21T05:46:51.401Z,0.75
2023-01-21T05:49:20.195Z,1.73
2023-01-21T05:51:48.727Z,1.42
2023-01-21T05:54:16.510Z,1.10
2023-01-21T05:56:44.349Z,1.40
2023-01-21T05:59:12.286Z,1.33
2023-01-21T06:01:40.503Z,1.13
2023-01-21T06:04:08.397Z,1.27
2023-01-21T06:06:36.543Z,1.20
2023-01-21T06:09:04.451Z,1.40
2023-01-21T06:11:33.015Z,1.25
2023-01-21T06:14:00.864Z,1.10
2023-01-21T06:16:29.537Z,1.50
2023-01-21T06:18:57.198Z,1.40
2023-01-21T06:21:25.629Z,1.55
2023-01-21T06:23:54.087Z,1.30
2023-01-21T06:26:22.318Z,1.50
2023-01-21T06:28:49.803Z,1.00
2023-01-21T06:31:18.088Z,1.33
2023-01-21T06:33:45.847Z,1.17
2023-01-21T06:36:14.205Z,1.30
2023-01-21T06:38:41.532Z,1.70
2023-01-21T06:41:09.774Z,1.58
2023-01-21T06:43:37.476Z,1.27
2023-01-21T06:46:06.045Z,1.60
2023-01-21T06:48:34.123Z,1.35
2023-01-21T06:51:02.496Z,1.45
2023-01-21T06:53:30.323Z,1.90
2023-01-21T06:55:58.598Z,1.95
2023-01-21T06:58:26.377Z,1.63
2023-01-21T07:00:57.650Z,1.77
2023-01-21T07:03:25.475Z,1.48
2023-01-21T07:05:53.533Z,1.92
2023-01-21T07:08:21.502Z,1.90
2023-01-21T07:10:49.619Z,2.05
2023-01-21T07:13:17.534Z,1.90
2023-01-21T07:15:45.815Z,1.75
2023-01-21T07:18:13.886Z,2.03
2023-01-21T07:20:42.881Z,2.10
2023-01-21T07:23:10.642Z,2.50
2023-01-21T07:25:38.872Z,2.30
2023-01-21T07:28:06.908Z,2.38
2023-01-21T07:30:35.229Z,2.03
2023-01-21T07:33:07.263Z,1.90
2023-01-21T07:35:35.866Z,1.23
2023-01-21T07:38:03.592Z,1.42
2023-01-21T07:40:32.082Z,1.40
2023-01-21T07:42:59.740Z,1.77
2023-01-21T07:45:28.181Z,1.92
2023-01-21T07:47:55.965Z,1.63
2023-01-21T07:50:24.638Z,1.80
2023-01-21T07:52:55.669Z,1.60
2023-01-21T07:55:23.820Z,1.23
2023-01-21T07:57:51.882Z,1.60
2023-01-21T08:00:20.500Z,1.70
2023-01-21T08:02:52.171Z,1.42
2023-01-21T08:05:20.548Z,2.07
2023-01-21T08:07:48.422Z,1.75
2023-01-21T08:10:18.450Z,1.55
2023-01-21T08:12:46.120Z,1.98
2023-01-21T08:15:14.277Z,1.88
2023-01-21T08:17:47.425Z,1.85
2023-01-21T08:20:15.647Z,1.58
2023-01-21T08:22:48.008Z,1.70
2023-01-21T08:25:19.686Z,1.90
2023-01-21T08:27:47.775Z,1.95
2023-01-21T08:30:16.188Z,1.77
2023-01-21T08:32:44.455Z,1.20
2023-01-21T08:35:13.073Z,2.15
2023-01-21T08:37:41.191Z,2.05
2023-01-21T08:40:10.505Z,1.98
2023-01-21T08:42:38.506Z,2.22
2023-01-21T08:45:07.656Z,2.55
2023-01-21T08:47:35.340Z,2.53
2023-01-21T08:50:04.017Z,1.65
2023-01-21T08:52:32.633Z,2.22
2023-01-21T08:55:00.474Z,2.10
2023-01-21T08:57:28.311Z,1.33
2023-01-21T08:59:56.705Z,1.83
2023-01-21T09:02:24.481Z,2.25
2023-01-21T09:04:53.810Z,2.25
2023-01-21T09:07:21.656Z,2.55
2023-01-21T09:09:50.250Z,2.65
2023-01-21T09:12:18.175Z,1.27
2023-01-21T09:14:46.542Z,3.88
2023-01-21T09:17:14.282Z,3.20
2023-01-21T09:19:42.157Z,3.60
2023-01-21T09:22:10.239Z,3.30
2023-01-21T09:24:38.870Z,2.67
2023-01-21T09:27:10.872Z,3.22
2023-01-21T09:29:39.134Z,2.13
2023-01-21T09:32:07.588Z,3.13
2023-01-21T09:34:36.079Z,3.15
2023-01-21T09:37:05.574Z,3.42
2023-01-21T09:39:33.560Z,3.13
2023-01-21T09:42:01.817Z,3.30
2023-01-21T09:44:32.807Z,2.60
2023-01-21T09:47:09.399Z,3.25
2023-01-21T09:50:06.338Z,2.95
2023-01-21T09:52:40.955Z,2.88
2023-01-21T09:55:18.041Z,4.05
2023-01-21T09:58:04.978Z,3.50
2023-01-21T10:00:42.153Z,3.83
2023-01-21T10:03:36.775Z,3.63
2023-01-21T10:06:17.378Z,3.90
2023-01-21T10:09:29.315Z,2.42
2023-01-21T10:12:11.518Z,4.22
2023-01-21T10:14:51.457Z,3.65
2023-01-21T10:17:56.208Z,2.20
2023-01-21T10:20:34.114Z,3.92
2023-01-21T10:23:41.116Z,3.70
2023-01-21T10:26:13.560Z,3.85
2023-01-21T10:28:45.191Z,5.63
2023-01-21T10:31:24.455Z,4.72
2023-01-21T10:33:53.930Z,5.72
2023-01-21T10:36:43.585Z,4.53
2023-01-21T10:39:33.895Z,5.72
2023-01-21T10:42:27.879Z,5.88
2023-01-21T10:45:31.288Z,6.00
2023-01-21T10:48:11.648Z,6.68
2023-01-21T10:51:01.402Z,7.65
2023-01-21T10:53:33.911Z,5.22
2023-01-21T10:56:21.873Z,6.47
2023-01-21T10:58:53.337Z,5.22
2023-01-21T11:01:29.761Z,6.27
2023-01-21T11:04:02.265Z,7.40
2023-01-21T11:06:33.213Z,7.40
2023-01-21T11:09:03.799Z,7.43
2023-01-21T11:11:34.237Z,7.70
2023-01-21T11:14:02.127Z,7.38
2023-01-21T11:16:39.804Z,7.97
2023-01-21T11:19:08.222Z,8.18
2023-01-21T11:21:40.489Z,8.77
2023-01-21T11:24:24.882Z,4.35
2023-01-21T11:26:58.783Z,6.05
2023-01-21T11:29:27.315Z,7.55
2023-01-21T11:32:21.667Z,6.63
2023-01-21T11:34:51.255Z,9.00
2023-01-21T11:37:26.677Z,9.40
2023-01-21T11:39:56.987Z,9.25
2023-01-21T11:42:25.825Z,10.80
2023-01-21T11:44:57.921Z,10.10
2023-01-21T11:47:50.425Z,11.25
2023-01-21T11:50:39.946Z,9.40
2023-01-21T11:53:08.128Z,11.30
2023-01-21T11:55:46.526Z,10.57
2023-01-21T11:58:26.589Z,10.43
2023-01-21T12:00:56.416Z,8.50
2023-01-21T12:03:54.628Z,11.43
2023-01-21T12:06:25.919Z,8.90
2023-01-21T12:08:56.804Z,9.23
2023-01-21T12:11:26.859Z,10.82
2023-01-21T12:14:17.639Z,10.60
2023-01-21T12:17:10.773Z,7.53
2023-01-21T12:22:27.346Z,11.57
2023-01-21T12:25:08.233Z,11.95
2023-01-21T12:27:35.968Z,13.18
2023-01-21T12:30:16.964Z,11.15
2023-01-21T12:32:52.033Z,13.50
2023-01-21T12:35:54.265Z,10.82
2023-01-21T12:38:33.458Z,9.77
2023-01-21T12:41:24.047Z,13.65
2023-01-21T12:43:59.473Z,14.00
2023-01-21T12:46:36.068Z,11.60
2023-01-21T12:49:11.568Z,13.05
2023-01-21T12:52:03.849Z,12.18
2023-01-21T12:54:47.124Z,10.05
2023-01-21T12:57:17.516Z,13.50
2023-01-21T12:59:53.786Z,13.07
2023-01-21T13:02:29.850Z,11.15
2023-01-21T13:05:04.608Z,10.20
2023-01-21T13:07:57.678Z,12.43
2023-01-21T13:10:31.624Z,13.32
2023-01-21T13:13:28.299Z,10.73
2023-01-21T13:16:00.860Z,13.55
2023-01-21T13:21:33.042Z,13.95
2023-01-21T13:24:12.946Z,10.35
2023-01-21T13:26:50.665Z,15.13
2023-01-21T13:29:32.213Z,10.55
2023-01-21T13:32:37.528Z,13.30
2023-01-21T13:35:11.867Z,12.57
2023-01-21T13:38:07.521Z,12.93
2023-01-21T13:41:20.829Z,12.35
2023-01-21T13:44:32.291Z,13.32
2023-01-21T13:50:05.709Z,8.82
2023-01-21T13:53:02.497Z,7.57
2023-01-21T13:56:13.944Z,10.25
2023-01-21T13:58:49.031Z,7.30
2023-01-21T14:01:44.840Z,10.95
2023-01-21T14:04:39.217Z,10.63
2023-01-21T14:07:21.873Z,13.15
2023-01-21T14:10:16.202Z,10.27
2023-01-21T14:12:59.339Z,12.25
2023-01-21T14:16:05.482Z,13.85
2023-01-21T14:18:54.743Z,9.30
2023-01-21T14:21:55.946Z,16.13
2023-01-21T14:24:54.106Z,15.82
2023-01-21T14:28:04.083Z,9.88
2023-01-21T14:30:43.893Z,10.35
2023-01-21T14:33:20.979Z,15.27
2023-01-21T14:36:06.146Z,13.75
2023-01-21T14:38:56.434Z,15.65
2023-01-21T14:41:24.466Z,15.38
2023-01-21T14:43:53.281Z,15.70
2023-01-21T14:46:34.154Z,16.88
2023-01-21T14:49:10.289Z,14.88
2023-01-21T14:51:43.529Z,10.45
2023-01-21T14:54:15.028Z,11.68
2023-01-21T14:56:53.412Z,15.20
2023-01-21T14:59:37.860Z,12.70
2023-01-21T15:02:30.099Z,14.98
2023-01-21T15:05:03.940Z,11.80
2023-01-21T15:07:36.430Z,14.93
2023-01-21T15:12:40.243Z,13.10
2023-01-21T15:15:31.834Z,13.88
2023-01-21T15:18:10.065Z,10.50
2023-01-21T15:20:59.605Z,12.05
2023-01-21T15:23:31.992Z,15.88
2023-01-21T15:26:15.518Z,12.63
2023-01-21T15:31:21.807Z,14.40
2023-01-21T15:33:58.219Z,15.75
2023-01-21T15:36:31.676Z,17.02
2023-01-21T15:39:02.652Z,16.45
2023-01-21T15:42:08.956Z,18.55
2023-01-21T15:45:14.732Z,16.23
2023-01-21T15:47:56.311Z,19.83
2023-01-21T15:50:47.363Z,16.77
2023-01-21T15:53:22.133Z,15.05
2023-01-21T15:55:56.342Z,18.15
2023-01-21T15:58:50.873Z,16.17
2023-01-21T16:01:29.437Z,28.88
2023-01-21T16:04:28.748Z,18.08
2023-01-21T16:07:39.347Z,20.73
2023-01-21T16:10:31.903Z,37.00
2023-01-21T16:13:11.243Z,43.20
2023-01-21T16:16:01.526Z,26.05
2023-01-21T16:19:00.183Z,18.42
2023-01-21T16:21:32.611Z,22.88
2023-01-21T16:24:11.615Z,25.67
2023-01-21T16:26:40.343Z,54.30
2023-01-21T16:29:13.515Z,76.43
2023-01-21T16:32:02.404Z,67.80
2023-01-21T16:34:45.037Z,24.05
2023-01-21T16:37:18.389Z,76.70
2023-01-21T16:39:47.008Z,30.20
2023-01-21T16:42:33.457Z,24.05
2023-01-21T16:45:01.343Z,24.17
2023-01-21T16:47:37.194Z,23.92
2023-01-21T16:50:06.217Z,22.30
2023-01-21T16:52:34.724Z,22.02
2023-01-21T16:55:03.492Z,23.50
2023-01-21T16:57:32.106Z,29.23
2023-01-21T17:00:02.751Z,22.02
2023-01-21T17:02:33.348Z,19.95
2023-01-21T17:05:05.321Z,19.33
2023-01-21T17:07:45.957Z,19.02
2023-01-21T17:10:25.151Z,13.50
2023-01-21T17:12:59.979Z,17.80
2023-01-21T17:15:45.252Z,92.18
2023-01-21T17:18:22.120Z,22.35
2023-01-21T17:20:52.252Z,96.75
2023-01-21T17:23:33.620Z,19.88
2023-01-21T17:26:24.821Z,19.25
2023-01-21T17:28:54.413Z,27.10
2023-01-21T17:31:31.136Z,20.55
2023-01-21T17:34:18.199Z,19.25
2023-01-21T17:36:48.219Z,16.48
2023-01-21T17:39:55.293Z,14.77
2023-01-21T17:42:25.367Z,19.25
2023-01-21T17:44:59.246Z,16.30
2023-01-21T17:47:30.659Z,11.55
2023-01-21T17:50:32.088Z,14.07
2023-01-21T17:53:18.651Z,15.48
2023-01-21T17:56:00.542Z,17.60
2023-01-21T17:58:48.844Z,17.52
2023-01-21T18:01:18.713Z,20.83
2023-01-21T18:03:47.159Z,20.92
2023-01-21T18:06:21.231Z,12.10
2023-01-21T18:08:50.593Z,19.60
2023-01-21T18:11:19.128Z,19.02
2023-01-21T18:13:47.816Z,20.38
2023-01-21T18:16:16.353Z,15.88
2023-01-21T18:18:45.134Z,19.25
2023-01-21T18:21:20.636Z,17.15
2023-01-21T18:23:49.413Z,17.45
2023-01-21T18:26:23.706Z,15.75
2023-01-21T18:28:51.579Z,16.05
2023-01-21T18:31:19.860Z,16.77
2023-01-21T18:33:47.665Z,14.18
2023-01-21T18:36:16.121Z,13.63
2023-01-21T18:38:44.050Z,15.63
2023-01-21T18:41:13.584Z,18.23
2023-01-21T18:43:42.789Z,14.98
2023-01-21T18:46:13.691Z,18.08
2023-01-21T18:48:43.200Z,18.23
2023-01-21T18:51:12.993Z,15.23
2023-01-21T18:53:41.001Z,17.10
2023-01-21T18:56:13.215Z,16.48
2023-01-21T18:58:40.952Z,16.23
2023-01-21T19:01:22.051Z,17.02
2023-01-21T19:03:53.733Z,18.52
2023-01-21T19:06:23.144Z,17.20
2023-01-21T19:08:50.880Z,17.13
2023-01-21T19:11:19.383Z,15.95
2023-01-21T19:13:47.130Z,15.52
2023-01-21T19:16:17.458Z,18.10
2023-01-21T19:18:45.472Z,15.82
2023-01-21T19:21:13.675Z,16.55
2023-01-21T19:23:41.770Z,15.85
2023-01-21T19:26:14.174Z,15.45
2023-01-21T19:28:42.734Z,16.63
2023-01-21T19:31:10.858Z,15.35
2023-01-21T19:33:40.057Z,17.83
2023-01-21T19:36:15.486Z,14.65
2023-01-21T19:38:48.166Z,12.68
2023-01-21T19:41:16.832Z,14.95
2023-01-21T19:43:44.768Z,14.00
2023-01-21T19:46:13.215Z,15.25
2023-01-21T19:48:42.297Z,12.20
2023-01-21T19:51:10.726Z,14.20
2023-01-21T19:53:38.566Z,16.52
2023-01-21T19:56:07.705Z,16.25
2023-01-21T19:58:36.305Z,15.82
2023-01-21T20:01:04.981Z,12.38
2023-01-21T20:03:32.806Z,16.30
2023-01-21T20:06:04.341Z,15.38
2023-01-21T20:08:35.833Z,16.55
2023-01-21T20:11:06.373Z,15.35
2023-01-21T20:13:37.094Z,17.77
2023-01-21T20:16:19.054Z,17.27
2023-01-21T20:18:48.342Z,18.85
2023-01-21T20:21:17.023Z,19.35
2023-01-21T20:23:45.348Z,14.15
2023-01-21T20:26:26.138Z,8.60
2023-01-21T20:28:55.619Z,0.93
2023-01-21T20:31:24.733Z,0.10
2023-01-21T20:33:52.799Z,1.60
2023-01-21T20:36:23.290Z,0.00
2023-01-21T20:38:52.618Z,0.25
2023-01-21T20:41:21.332Z,1.40
2023-01-21T20:43:49.277Z,0.70
2023-01-21T20:46:30.833Z,0.68
2023-01-21T20:48:59.862Z,0.00
2023-01-21T20:51:29.269Z,0.00
2023-01-21T20:53:57.060Z,0.75
2023-01-21T20:56:34.500Z,1.35
2023-01-21T20:59:02.418Z,0.60
2023-01-21T21:01:35.146Z,0.00
2023-01-21T21:04:03.460Z,2.90
2023-01-21T21:06:32.761Z,1.35
2023-01-21T21:09:00.799Z,0.00
2023-01-21T21:11:29.566Z,1.60
2023-01-21T21:13:58.112Z,1.45
2023-01-21T21:16:30.084Z,2.47
2023-01-21T21:18:59.529Z,0.22
2023-01-21T21:21:27.951Z,0.22
2023-01-21T21:23:55.780Z,0.30
2023-01-21T21:26:26.514Z,0.30
2023-01-21T21:28:55.907Z,0.40
2023-01-21T21:31:24.795Z,1.27
2023-01-21T21:33:53.596Z,0.90
2023-01-21T21:36:26.223Z,0.80
2023-01-21T21:38:55.937Z,0.98
2023-01-21T21:41:45.778Z,2.17
2023-01-21T21:44:14.380Z,0.10
2023-01-21T21:47:02.097Z,0.63
2023-01-21T21:49:30.778Z,0.20
2023-01-21T21:52:01.269Z,0.47
2023-01-21T21:54:29.164Z,0.82
2023-01-21T21:56:57.865Z,0.45
2023-01-21T21:59:25.774Z,1.55
2023-01-21T22:01:54.785Z,1.75
2023-01-21T22:04:23.763Z,0.00
2023-01-21T22:06:53.230Z,0.00
2023-01-21T22:09:21.195Z,0.22
2023-01-21T22:11:49.081Z,0.95
2023-01-21T22:14:18.346Z,1.60
2023-01-21T22:16:46.717Z,0.13
2023-01-21T22:19:15.365Z,0.10
2023-01-21T22:21:43.205Z,2.40
2023-01-21T22:24:11.452Z,0.55
2023-01-21T22:26:40.540Z,4.53
2023-01-21T22:29:08.683Z,0.95
2023-01-21T22:31:36.744Z,0.77
2023-01-21T22:34:05.506Z,3.42
2023-01-21T22:36:34.077Z,0.00
2023-01-21T22:39:02.664Z,0.28
2023-01-21T22:41:30.966Z,0.30
2023-01-21T22:43:59.235Z,0.90
2023-01-21T22:46:31.956Z,0.80
2023-01-21T22:49:00.376Z,1.33
2023-01-21T22:51:28.861Z,1.10
2023-01-21T22:53:57.807Z,0.38
2023-01-21T22:56:44.962Z,0.68
2023-01-21T22:59:15.850Z,3.03
2023-01-21T23:01:44.573Z,0.00
2023-01-21T23:04:12.967Z,1.25
2023-01-21T23:06:40.827Z,0.00
2023-01-21T23:09:11.467Z,1.02
2023-01-21T23:11:40.086Z,0.80
2023-01-21T23:14:10.624Z,0.90
2023-01-21T23:16:38.541Z,0.60
2023-01-21T23:19:06.881Z,0.65
2023-01-21T23:21:34.688Z,0.38
2023-01-21T23:24:03.551Z,0.00
2023-01-21T23:26:31.446Z,0.00
2023-01-21T23:28:59.563Z,0.20
2023-01-21T23:31:27.353Z,1.10
2023-01-21T23:33:59.202Z,0.43
2023-01-21T23:36:26.804Z,1.33
2023-01-21T23:38:55.245Z,1.13
2023-01-21T23:41:23.128Z,1.85
2023-01-21T23:43:51.514Z,1.83
2023-01-21T23:46:22.519Z,0.70
2023-01-21T23:48:50.943Z,0.00
2023-01-21T23:51:19.587Z,0.38
2023-01-21T23:53:49.218Z,0.20
2023-01-21T23:56:22.030Z,0.17
2023-01-21T23:58:51.515Z,2.13
